Amalia, New Mexico
Current Conditions -  °F | °C
As of 4:55 AM on Sunday 23 Nov 2014 (Local Time) from KSKX Reporting Station
Overcast Overcast  
Wind Chill: 26°   Ceiling: 5000
Heat Index: 34°   Visibility: 10mi
Dew Point: 25°   Wind: 9mph
Humidity: 70%   Direction: 220°SW
Pressure: 29.72"   Gusts: NA
Location:  36.94°N, 105.45°W
Report Text: KSKX 231155Z AUTO 22008KT 10SM OVC050 01/M04 A2972 RMK AO1 10030 20000 57024
Loading
Personal Weather Stations






























Interactive Weather Map New forecast layout! Learn more

10-Day Weather Forecast

Advertisements
Track Severe Weather on mobile